sensor_id;sensor_type;location;lat;lon;timestamp;temperature;humidity
8662;DHT22;29684;47.722;9.388;2022-11-20T00:02:35;4.80;99.90
8662;DHT22;29684;47.722;9.388;2022-11-20T00:05:19;4.30;99.90
8662;DHT22;29684;47.722;9.388;2022-11-20T00:08:04;4.30;99.90
8662;DHT22;29684;47.722;9.388;2022-11-20T00:10:48;4.30;99.90
8662;DHT22;29684;47.722;9.388;2022-11-20T00:13:33;4.20;99.90
8662;DHT22;29684;47.722;9.388;2022-11-20T00:16:20;4.20;99.90
8662;DHT22;29684;47.722;9.388;2022-11-20T00:19:04;4.20;99.90
8662;DHT22;29684;47.722;9.388;2022-11-20T00:21:49;4.20;99.90
8662;DHT22;29684;47.722;9.388;2022-11-20T00:24:35;4.10;99.90
8662;DHT22;29684;47.722;9.388;2022-11-20T00:27:19;4.30;99.90
8662;DHT22;29684;47.722;9.388;2022-11-20T00:30:04;4.30;99.90
8662;DHT22;29684;47.722;9.388;2022-11-20T00:32:49;4.20;99.90
8662;DHT22;29684;47.722;9.388;2022-11-20T00:35:33;4.70;99.90
8662;DHT22;29684;47.722;9.388;2022-11-20T00:38:18;4.20;99.90
8662;DHT22;29684;47.722;9.388;2022-11-20T00:41:04;4.40;99.90
8662;DHT22;29684;47.722;9.388;2022-11-20T00:43:49;4.30;99.90
8662;DHT22;29684;47.722;9.388;2022-11-20T00:46:34;4.30;99.90
8662;DHT22;29684;47.722;9.388;2022-11-20T00:49:18;4.50;99.90
8662;DHT22;29684;47.722;9.388;2022-11-20T00:52:03;4.50;99.90
8662;DHT22;29684;47.722;9.388;2022-11-20T00:54:47;4.50;99.90
8662;DHT22;29684;47.722;9.388;2022-11-20T00:57:31;4.70;99.90
8662;DHT22;29684;47.722;9.388;2022-11-20T01:00:16;4.60;99.90
8662;DHT22;29684;47.722;9.388;2022-11-20T01:03:00;4.60;99.90
8662;DHT22;29684;47.722;9.388;2022-11-20T01:05:44;5.50;99.90
8662;DHT22;29684;47.722;9.388;2022-11-20T01:08:30;4.50;99.90
8662;DHT22;29684;47.722;9.388;2022-11-20T01:11:17;5.90;99.90
8662;DHT22;29684;47.722;9.388;2022-11-20T01:14:04;4.70;99.90
8662;DHT22;29684;47.722;9.388;2022-11-20T01:16:50;4.80;99.90
8662;DHT22;29684;47.722;9.388;2022-11-20T01:19:35;4.70;99.90
8662;DHT22;29684;47.722;9.388;2022-11-20T01:22:19;4.90;99.90
8662;DHT22;29684;47.722;9.388;2022-11-20T01:25:03;4.90;99.90
8662;DHT22;29684;47.722;9.388;2022-11-20T01:27:48;4.80;99.90
8662;DHT22;29684;47.722;9.388;2022-11-20T01:30:32;4.70;99.90
8662;DHT22;29684;47.722;9.388;2022-11-20T01:33:16;4.70;99.90
8662;DHT22;29684;47.722;9.388;2022-11-20T01:36:05;4.40;99.90
8662;DHT22;29684;47.722;9.388;2022-11-20T01:38:54;4.90;99.90
8662;DHT22;29684;47.722;9.388;2022-11-20T01:41:39;4.90;99.90
8662;DHT22;29684;47.722;9.388;2022-11-20T01:44:55;4.80;99.90
8662;DHT22;29684;47.722;9.388;2022-11-20T01:47:44;4.90;99.90
8662;DHT22;29684;47.722;9.388;2022-11-20T01:50:30;5.30;99.90
8662;DHT22;29684;47.722;9.388;2022-11-20T01:53:17;5.00;99.90
8662;DHT22;29684;47.722;9.388;2022-11-20T01:56:04;4.80;99.90
8662;DHT22;29684;47.722;9.388;2022-11-20T01:58:54;4.80;99.90
8662;DHT22;29684;47.722;9.388;2022-11-20T02:01:38;4.90;99.90
8662;DHT22;29684;47.722;9.388;2022-11-20T02:04:23;4.70;99.90
8662;DHT22;29684;47.722;9.388;2022-11-20T02:07:08;5.60;99.90
8662;DHT22;29684;47.722;9.388;2022-11-20T02:09:52;6.10;99.90
8662;DHT22;29684;47.722;9.388;2022-11-20T02:12:37;5.00;99.90
8662;DHT22;29684;47.722;9.388;2022-11-20T02:15:40;5.20;99.90
8662;DHT22;29684;47.722;9.388;2022-11-20T02:18:24;4.90;99.90
8662;DHT22;29684;47.722;9.388;2022-11-20T02:21:28;4.90;99.90
8662;DHT22;29684;47.722;9.388;2022-11-20T02:24:15;4.90;99.90
8662;DHT22;29684;47.722;9.388;2022-11-20T02:27:08;4.80;99.90
8662;DHT22;29684;47.722;9.388;2022-11-20T02:30:11;4.70;99.90
8662;DHT22;29684;47.722;9.388;2022-11-20T02:32:55;4.90;99.90
8662;DHT22;29684;47.722;9.388;2022-11-20T02:35:46;4.70;99.90
8662;DHT22;29684;47.722;9.388;2022-11-20T02:38:31;4.90;99.90
8662;DHT22;29684;47.722;9.388;2022-11-20T02:41:15;4.70;99.90
8662;DHT22;29684;47.722;9.388;2022-11-20T02:43:59;4.90;99.90
8662;DHT22;29684;47.722;9.388;2022-11-20T02:46:44;4.90;99.90
8662;DHT22;29684;47.722;9.388;2022-11-20T02:49:28;4.90;99.90
8662;DHT22;29684;47.722;9.388;2022-11-20T02:52:12;5.70;99.90
8662;DHT22;29684;47.722;9.388;2022-11-20T02:54:56;4.90;99.90
8662;DHT22;29684;47.722;9.388;2022-11-20T02:57:40;4.90;99.90
8662;DHT22;29684;47.722;9.388;2022-11-20T03:00:24;4.90;99.90
8662;DHT22;29684;47.722;9.388;2022-11-20T03:03:09;4.90;99.90
8662;DHT22;29684;47.722;9.388;2022-11-20T03:05:53;4.80;99.90
8662;DHT22;29684;47.722;9.388;2022-11-20T03:08:37;4.70;99.90
8662;DHT22;29684;47.722;9.388;2022-11-20T03:11:21;4.70;99.90
8662;DHT22;29684;47.722;9.388;2022-11-20T03:14:05;4.70;99.90
8662;DHT22;29684;47.722;9.388;2022-11-20T03:16:50;4.60;99.90
8662;DHT22;29684;47.722;9.388;2022-11-20T03:19:34;4.60;99.90
8662;DHT22;29684;47.722;9.388;2022-11-20T03:22:18;4.60;99.90
8662;DHT22;29684;47.722;9.388;2022-11-20T03:25:02;4.70;99.90
8662;DHT22;29684;47.722;9.388;2022-11-20T03:27:47;4.60;99.90
8662;DHT22;29684;47.722;9.388;2022-11-20T03:30:31;4.60;99.90
8662;DHT22;29684;47.722;9.388;2022-11-20T03:33:16;4.80;99.90
8662;DHT22;29684;47.722;9.388;2022-11-20T03:36:09;4.60;99.90
8662;DHT22;29684;47.722;9.388;2022-11-20T03:38:55;4.70;99.90
8662;DHT22;29684;47.722;9.388;2022-11-20T03:41:41;4.70;99.90
8662;DHT22;29684;47.722;9.388;2022-11-20T03:44:26;6.10;99.90
8662;DHT22;29684;47.722;9.388;2022-11-20T03:47:10;5.70;99.90
8662;DHT22;29684;47.722;9.388;2022-11-20T03:49:54;4.80;99.90
8662;DHT22;29684;47.722;9.388;2022-11-20T03:52:39;4.80;99.90
8662;DHT22;29684;47.722;9.388;2022-11-20T03:55:23;4.80;99.90
8662;DHT22;29684;47.722;9.388;2022-11-20T03:58:08;4.80;99.90
8662;DHT22;29684;47.722;9.388;2022-11-20T04:00:52;4.80;99.90
8662;DHT22;29684;47.722;9.388;2022-11-20T04:03:38;4.80;99.90
8662;DHT22;29684;47.722;9.388;2022-11-20T04:06:32;4.80;99.90
8662;DHT22;29684;47.722;9.388;2022-11-20T04:09:17;4.80;99.90
8662;DHT22;29684;47.722;9.388;2022-11-20T04:12:01;4.80;99.90
8662;DHT22;29684;47.722;9.388;2022-11-20T04:14:45;4.80;99.90
8662;DHT22;29684;47.722;9.388;2022-11-20T04:17:30;5.30;99.90
8662;DHT22;29684;47.722;9.388;2022-11-20T04:20:14;4.80;99.90
8662;DHT22;29684;47.722;9.388;2022-11-20T04:22:58;4.80;99.90
8662;DHT22;29684;47.722;9.388;2022-11-20T04:25:43;4.80;99.90
8662;DHT22;29684;47.722;9.388;2022-11-20T04:28:27;4.80;99.90
8662;DHT22;29684;47.722;9.388;2022-11-20T04:31:14;4.70;99.90
8662;DHT22;29684;47.722;9.388;2022-11-20T04:34:04;4.70;99.90
8662;DHT22;29684;47.722;9.388;2022-11-20T04:36:49;4.60;99.90
8662;DHT22;29684;47.722;9.388;2022-11-20T04:39:33;4.70;99.90
8662;DHT22;29684;47.722;9.388;2022-11-20T04:42:17;4.70;99.90
8662;DHT22;29684;47.722;9.388;2022-11-20T04:45:13;4.70;99.90
8662;DHT22;29684;47.722;9.388;2022-11-20T04:47:57;4.70;99.90
8662;DHT22;29684;47.722;9.388;2022-11-20T04:50:42;4.60;99.90
8662;DHT22;29684;47.722;9.388;2022-11-20T04:53:26;4.60;99.90
8662;DHT22;29684;47.722;9.388;2022-11-20T04:56:12;4.60;99.90
8662;DHT22;29684;47.722;9.388;2022-11-20T04:59:00;4.60;99.90
8662;DHT22;29684;47.722;9.388;2022-11-20T05:01:45;4.60;99.90
8662;DHT22;29684;47.722;9.388;2022-11-20T05:04:29;4.70;99.90
8662;DHT22;29684;47.722;9.388;2022-11-20T05:07:13;4.60;99.90
8662;DHT22;29684;47.722;9.388;2022-11-20T05:09:57;4.60;99.90
8662;DHT22;29684;47.722;9.388;2022-11-20T05:12:41;4.60;99.90
8662;DHT22;29684;47.722;9.388;2022-11-20T05:15:26;4.60;99.90
8662;DHT22;29684;47.722;9.388;2022-11-20T05:18:10;4.70;99.90
8662;DHT22;29684;47.722;9.388;2022-11-20T05:20:55;4.30;99.90
8662;DHT22;29684;47.722;9.388;2022-11-20T05:23:41;4.70;99.90
8662;DHT22;29684;47.722;9.388;2022-11-20T05:26:25;4.80;99.90
8662;DHT22;29684;47.722;9.388;2022-11-20T05:29:11;4.60;99.90
8662;DHT22;29684;47.722;9.388;2022-11-20T05:31:55;4.70;99.90
8662;DHT22;29684;47.722;9.388;2022-11-20T05:34:39;4.70;99.90
8662;DHT22;29684;47.722;9.388;2022-11-20T05:37:23;5.40;99.90
8662;DHT22;29684;47.722;9.388;2022-11-20T05:40:08;4.80;99.90
8662;DHT22;29684;47.722;9.388;2022-11-20T05:42:52;4.90;99.90
8662;DHT22;29684;47.722;9.388;2022-11-20T05:45:37;4.80;99.90
8662;DHT22;29684;47.722;9.388;2022-11-20T05:48:21;4.90;99.90
8662;DHT22;29684;47.722;9.388;2022-11-20T05:51:07;5.30;99.90
8662;DHT22;29684;47.722;9.388;2022-11-20T05:53:51;4.90;99.90
8662;DHT22;29684;47.722;9.388;2022-11-20T05:56:35;5.70;99.90
8662;DHT22;29684;47.722;9.388;2022-11-20T05:59:22;5.20;99.90
8662;DHT22;29684;47.722;9.388;2022-11-20T06:02:06;4.80;99.90
8662;DHT22;29684;47.722;9.388;2022-11-20T06:04:50;4.80;99.90
8662;DHT22;29684;47.722;9.388;2022-11-20T06:07:34;5.30;99.90
8662;DHT22;29684;47.722;9.388;2022-11-20T06:10:19;4.80;99.90
8662;DHT22;29684;47.722;9.388;2022-11-20T06:13:03;4.70;99.90
8662;DHT22;29684;47.722;9.388;2022-11-20T06:15:51;4.60;99.90
8662;DHT22;29684;47.722;9.388;2022-11-20T06:18:36;4.50;99.90
8662;DHT22;29684;47.722;9.388;2022-11-20T06:21:22;5.00;99.90
8662;DHT22;29684;47.722;9.388;2022-11-20T06:24:08;4.60;99.90
8662;DHT22;29684;47.722;9.388;2022-11-20T06:26:53;4.60;99.90
8662;DHT22;29684;47.722;9.388;2022-11-20T06:29:37;4.50;99.90
8662;DHT22;29684;47.722;9.388;2022-11-20T06:32:21;4.40;99.90
8662;DHT22;29684;47.722;9.388;2022-11-20T06:35:06;4.30;99.90
8662;DHT22;29684;47.722;9.388;2022-11-20T06:37:50;4.50;99.90
8662;DHT22;29684;47.722;9.388;2022-11-20T06:40:34;4.80;99.90
8662;DHT22;29684;47.722;9.388;2022-11-20T06:43:19;4.70;99.90
8662;DHT22;29684;47.722;9.388;2022-11-20T06:46:03;4.70;99.90
8662;DHT22;29684;47.722;9.388;2022-11-20T06:48:48;4.80;99.90
8662;DHT22;29684;47.722;9.388;2022-11-20T06:51:32;4.90;99.90
8662;DHT22;29684;47.722;9.388;2022-11-20T06:54:17;5.00;99.90
8662;DHT22;29684;47.722;9.388;2022-11-20T06:57:01;4.80;99.90
8662;DHT22;29684;47.722;9.388;2022-11-20T06:59:45;5.00;99.90
8662;DHT22;29684;47.722;9.388;2022-11-20T07:02:29;5.00;99.90
8662;DHT22;29684;47.722;9.388;2022-11-20T07:05:14;5.90;99.90
8662;DHT22;29684;47.722;9.388;2022-11-20T07:07:58;5.20;99.90
8662;DHT22;29684;47.722;9.388;2022-11-20T07:10:42;4.70;99.90
8662;DHT22;29684;47.722;9.388;2022-11-20T07:13:27;5.20;99.90
8662;DHT22;29684;47.722;9.388;2022-11-20T07:16:11;5.20;99.90
8662;DHT22;29684;47.722;9.388;2022-11-20T07:18:55;5.40;99.90
8662;DHT22;29684;47.722;9.388;2022-11-20T07:21:39;5.60;99.90
8662;DHT22;29684;47.722;9.388;2022-11-20T07:24:23;5.10;99.90
8662;DHT22;29684;47.722;9.388;2022-11-20T07:27:07;5.30;99.90
8662;DHT22;29684;47.722;9.388;2022-11-20T07:29:51;5.20;99.90
8662;DHT22;29684;47.722;9.388;2022-11-20T07:32:35;5.40;99.90
8662;DHT22;29684;47.722;9.388;2022-11-20T07:35:20;5.40;99.90
8662;DHT22;29684;47.722;9.388;2022-11-20T07:38:04;5.00;99.90
8662;DHT22;29684;47.722;9.388;2022-11-20T07:40:48;5.40;99.90
8662;DHT22;29684;47.722;9.388;2022-11-20T07:43:33;5.80;99.90
8662;DHT22;29684;47.722;9.388;2022-11-20T07:46:17;5.50;99.90
8662;DHT22;29684;47.722;9.388;2022-11-20T07:49:01;4.70;99.90
8662;DHT22;29684;47.722;9.388;2022-11-20T07:51:45;5.60;99.90
8662;DHT22;29684;47.722;9.388;2022-11-20T07:54:29;5.50;99.90
8662;DHT22;29684;47.722;9.388;2022-11-20T07:57:13;6.40;99.90
8662;DHT22;29684;47.722;9.388;2022-11-20T07:59:57;5.60;99.90
8662;DHT22;29684;47.722;9.388;2022-11-20T08:02:42;5.40;99.90
8662;DHT22;29684;47.722;9.388;2022-11-20T08:05:26;6.00;99.90
8662;DHT22;29684;47.722;9.388;2022-11-20T08:08:10;5.60;99.90
8662;DHT22;29684;47.722;9.388;2022-11-20T08:10:58;5.60;99.90
8662;DHT22;29684;47.722;9.388;2022-11-20T08:14:01;5.60;99.90
8662;DHT22;29684;47.722;9.388;2022-11-20T08:16:58;5.60;99.90
8662;DHT22;29684;47.722;9.388;2022-11-20T08:19:43;5.60;99.90
8662;DHT22;29684;47.722;9.388;2022-11-20T08:22:28;6.00;99.90
8662;DHT22;29684;47.722;9.388;2022-11-20T08:25:12;6.00;99.90
8662;DHT22;29684;47.722;9.388;2022-11-20T08:28:01;5.70;99.90
8662;DHT22;29684;47.722;9.388;2022-11-20T08:30:46;5.70;99.90
8662;DHT22;29684;47.722;9.388;2022-11-20T08:33:40;5.70;99.90
8662;DHT22;29684;47.722;9.388;2022-11-20T08:36:25;5.70;99.90
8662;DHT22;29684;47.722;9.388;2022-11-20T08:39:11;5.90;99.90
8662;DHT22;29684;47.722;9.388;2022-11-20T08:41:56;5.90;99.90
8662;DHT22;29684;47.722;9.388;2022-11-20T08:44:40;5.90;99.90
8662;DHT22;29684;47.722;9.388;2022-11-20T08:47:24;6.00;99.90
8662;DHT22;29684;47.722;9.388;2022-11-20T08:50:09;6.00;99.90
8662;DHT22;29684;47.722;9.388;2022-11-20T08:52:54;6.00;99.90
8662;DHT22;29684;47.722;9.388;2022-11-20T08:55:38;6.20;99.90
8662;DHT22;29684;47.722;9.388;2022-11-20T08:58:23;6.20;99.90
8662;DHT22;29684;47.722;9.388;2022-11-20T09:01:08;6.80;99.90
8662;DHT22;29684;47.722;9.388;2022-11-20T09:03:52;5.90;99.90
8662;DHT22;29684;47.722;9.388;2022-11-20T09:06:36;6.40;99.90
8662;DHT22;29684;47.722;9.388;2022-11-20T09:09:20;6.30;99.90
8662;DHT22;29684;47.722;9.388;2022-11-20T09:12:04;5.60;99.90
8662;DHT22;29684;47.722;9.388;2022-11-20T09:14:48;6.40;99.90
8662;DHT22;29684;47.722;9.388;2022-11-20T09:17:35;6.30;99.90
8662;DHT22;29684;47.722;9.388;2022-11-20T09:20:22;6.70;99.90
8662;DHT22;29684;47.722;9.388;2022-11-20T09:23:06;6.40;99.90
8662;DHT22;29684;47.722;9.388;2022-11-20T09:25:50;6.70;99.90
8662;DHT22;29684;47.722;9.388;2022-11-20T09:28:35;8.00;99.90
8662;DHT22;29684;47.722;9.388;2022-11-20T09:31:24;6.80;99.90
8662;DHT22;29684;47.722;9.388;2022-11-20T09:34:08;6.80;99.90
8662;DHT22;29684;47.722;9.388;2022-11-20T09:36:53;6.80;99.90
8662;DHT22;29684;47.722;9.388;2022-11-20T09:39:38;6.90;99.90
8662;DHT22;29684;47.722;9.388;2022-11-20T09:48:58;7.00;99.90
8662;DHT22;29684;47.722;9.388;2022-11-20T09:51:59;7.10;99.90
8662;DHT22;29684;47.722;9.388;2022-11-20T09:54:44;6.80;99.90
8662;DHT22;29684;47.722;9.388;2022-11-20T09:57:36;7.20;99.90
8662;DHT22;29684;47.722;9.388;2022-11-20T10:00:22;7.40;99.90
8662;DHT22;29684;47.722;9.388;2022-11-20T10:09:40;7.60;99.90
8662;DHT22;29684;47.722;9.388;2022-11-20T10:15:52;8.40;99.90
8662;DHT22;29684;47.722;9.388;2022-11-20T10:24:56;8.50;99.90
8662;DHT22;29684;47.722;9.388;2022-11-20T10:27:56;8.10;99.90
8662;DHT22;29684;47.722;9.388;2022-11-20T10:30:55;8.30;99.90
8662;DHT22;29684;47.722;9.388;2022-11-20T10:33:43;8.10;99.90
8662;DHT22;29684;47.722;9.388;2022-11-20T10:37:01;8.00;99.90
8662;DHT22;29684;47.722;9.388;2022-11-20T10:39:55;7.70;99.90
8662;DHT22;29684;47.722;9.388;2022-11-20T10:42:45;7.90;99.90
8662;DHT22;29684;47.722;9.388;2022-11-20T10:48:36;8.10;99.90
8662;DHT22;29684;47.722;9.388;2022-11-20T10:51:45;9.10;99.90
8662;DHT22;29684;47.722;9.388;2022-11-20T11:00:32;8.90;99.90
8662;DHT22;29684;47.722;9.388;2022-11-20T11:03:26;9.00;99.90
8662;DHT22;29684;47.722;9.388;2022-11-20T11:06:23;8.60;99.90
8662;DHT22;29684;47.722;9.388;2022-11-20T11:09:16;8.50;99.90
8662;DHT22;29684;47.722;9.388;2022-11-20T11:12:09;9.70;99.90
8662;DHT22;29684;47.722;9.388;2022-11-20T11:14:56;7.90;99.90
8662;DHT22;29684;47.722;9.388;2022-11-20T11:17:46;8.60;99.90
8662;DHT22;29684;47.722;9.388;2022-11-20T11:20:31;7.70;99.90
8662;DHT22;29684;47.722;9.388;2022-11-20T11:23:42;7.60;99.90
8662;DHT22;29684;47.722;9.388;2022-11-20T11:26:27;7.80;99.90
8662;DHT22;29684;47.722;9.388;2022-11-20T11:29:17;7.50;99.90
8662;DHT22;29684;47.722;9.388;2022-11-20T11:32:07;7.50;99.90
8662;DHT22;29684;47.722;9.388;2022-11-20T11:35:03;7.50;99.90
8662;DHT22;29684;47.722;9.388;2022-11-20T11:37:48;7.40;99.90
8662;DHT22;29684;47.722;9.388;2022-11-20T11:40:35;6.80;99.90
8662;DHT22;29684;47.722;9.388;2022-11-20T11:43:23;6.90;99.90
8662;DHT22;29684;47.722;9.388;2022-11-20T11:46:32;7.50;99.90
8662;DHT22;29684;47.722;9.388;2022-11-20T11:49:18;7.50;99.90
8662;DHT22;29684;47.722;9.388;2022-11-20T11:52:21;7.40;99.90
8662;DHT22;29684;47.722;9.388;2022-11-20T11:55:11;7.40;99.90
8662;DHT22;29684;47.722;9.388;2022-11-20T12:01:29;7.40;99.90
8662;DHT22;29684;47.722;9.388;2022-11-20T12:10:28;7.30;99.90
8662;DHT22;29684;47.722;9.388;2022-11-20T12:16:14;7.20;99.90
8662;DHT22;29684;47.722;9.388;2022-11-20T12:18:59;7.70;99.90
8662;DHT22;29684;47.722;9.388;2022-11-20T12:31:17;7.10;99.90
8662;DHT22;29684;47.722;9.388;2022-11-20T12:36:55;8.40;99.90
8662;DHT22;29684;47.722;9.388;2022-11-20T12:39:41;7.30;99.90
8662;DHT22;29684;47.722;9.388;2022-11-20T12:58:33;7.60;99.90
8662;DHT22;29684;47.722;9.388;2022-11-20T13:07:44;7.60;99.90
8662;DHT22;29684;47.722;9.388;2022-11-20T13:14:09;7.30;99.90
8662;DHT22;29684;47.722;9.388;2022-11-20T13:17:14;7.40;99.90
8662;DHT22;29684;47.722;9.388;2022-11-20T13:20:02;7.40;99.90
8662;DHT22;29684;47.722;9.388;2022-11-20T13:22:48;7.40;99.90
8662;DHT22;29684;47.722;9.388;2022-11-20T13:25:35;7.40;99.90
8662;DHT22;29684;47.722;9.388;2022-11-20T13:31:03;7.90;99.90
8662;DHT22;29684;47.722;9.388;2022-11-20T13:33:52;8.00;99.90
8662;DHT22;29684;47.722;9.388;2022-11-20T13:36:49;7.60;99.90
8662;DHT22;29684;47.722;9.388;2022-11-20T13:39:36;8.50;99.90
8662;DHT22;29684;47.722;9.388;2022-11-20T13:42:25;8.60;99.90
8662;DHT22;29684;47.722;9.388;2022-11-20T13:45:22;8.70;99.90
8662;DHT22;29684;47.722;9.388;2022-11-20T13:48:22;8.80;99.90
8662;DHT22;29684;47.722;9.388;2022-11-20T13:57:14;8.30;99.90
8662;DHT22;29684;47.722;9.388;2022-11-20T14:00:15;8.40;99.90
8662;DHT22;29684;47.722;9.388;2022-11-20T14:05:54;8.10;99.90
8662;DHT22;29684;47.722;9.388;2022-11-20T14:08:47;8.00;99.90
8662;DHT22;29684;47.722;9.388;2022-11-20T14:11:32;7.90;99.90
8662;DHT22;29684;47.722;9.388;2022-11-20T14:14:19;7.50;99.90
8662;DHT22;29684;47.722;9.388;2022-11-20T14:17:15;7.70;99.90
8662;DHT22;29684;47.722;9.388;2022-11-20T14:20:06;7.70;99.90
8662;DHT22;29684;47.722;9.388;2022-11-20T14:22:56;7.60;99.90
8662;DHT22;29684;47.722;9.388;2022-11-20T14:25:45;7.50;99.90
8662;DHT22;29684;47.722;9.388;2022-11-20T14:28:30;7.70;99.90
8662;DHT22;29684;47.722;9.388;2022-11-20T14:31:22;7.70;99.90
8662;DHT22;29684;47.722;9.388;2022-11-20T14:34:38;7.60;99.90
8662;DHT22;29684;47.722;9.388;2022-11-20T14:37:24;7.50;99.90
8662;DHT22;29684;47.722;9.388;2022-11-20T14:40:31;7.50;99.90
8662;DHT22;29684;47.722;9.388;2022-11-20T14:43:19;7.50;99.90
8662;DHT22;29684;47.722;9.388;2022-11-20T14:46:07;7.40;99.90
8662;DHT22;29684;47.722;9.388;2022-11-20T14:48:55;7.80;99.90
8662;DHT22;29684;47.722;9.388;2022-11-20T14:51:40;7.60;99.90
8662;DHT22;29684;47.722;9.388;2022-11-20T14:54:29;7.30;99.90
8662;DHT22;29684;47.722;9.388;2022-11-20T14:57:22;7.10;99.90
8662;DHT22;29684;47.722;9.388;2022-11-20T15:02:57;7.10;99.90
8662;DHT22;29684;47.722;9.388;2022-11-20T15:05:48;6.70;99.90
8662;DHT22;29684;47.722;9.388;2022-11-20T15:08:34;7.20;99.90
8662;DHT22;29684;47.722;9.388;2022-11-20T15:11:25;6.80;99.90
8662;DHT22;29684;47.722;9.388;2022-11-20T15:14:11;6.80;99.90
8662;DHT22;29684;47.722;9.388;2022-11-20T15:16:56;6.70;99.90
8662;DHT22;29684;47.722;9.388;2022-11-20T15:19:40;6.70;99.90
8662;DHT22;29684;47.722;9.388;2022-11-20T15:22:24;6.70;99.90
8662;DHT22;29684;47.722;9.388;2022-11-20T15:25:17;6.60;99.90
8662;DHT22;29684;47.722;9.388;2022-11-20T15:28:02;6.60;99.90
8662;DHT22;29684;47.722;9.388;2022-11-20T15:30:47;6.50;99.90
8662;DHT22;29684;47.722;9.388;2022-11-20T15:33:33;6.50;99.90
8662;DHT22;29684;47.722;9.388;2022-11-20T15:36:17;6.50;99.90
8662;DHT22;29684;47.722;9.388;2022-11-20T15:39:02;6.30;99.90
8662;DHT22;29684;47.722;9.388;2022-11-20T15:41:47;6.30;99.90
8662;DHT22;29684;47.722;9.388;2022-11-20T15:44:31;6.30;99.90
8662;DHT22;29684;47.722;9.388;2022-11-20T15:47:15;6.40;99.90
8662;DHT22;29684;47.722;9.388;2022-11-20T15:50:01;6.50;99.90
8662;DHT22;29684;47.722;9.388;2022-11-20T15:52:45;6.20;99.90
8662;DHT22;29684;47.722;9.388;2022-11-20T15:55:30;6.10;99.90
8662;DHT22;29684;47.722;9.388;2022-11-20T15:58:15;6.00;99.90
8662;DHT22;29684;47.722;9.388;2022-11-20T16:01:00;6.10;99.90
8662;DHT22;29684;47.722;9.388;2022-11-20T16:03:45;5.90;99.90
8662;DHT22;29684;47.722;9.388;2022-11-20T16:06:29;5.80;99.90
8662;DHT22;29684;47.722;9.388;2022-11-20T16:09:13;5.20;99.90
8662;DHT22;29684;47.722;9.388;2022-11-20T16:11:57;5.90;99.90
8662;DHT22;29684;47.722;9.388;2022-11-20T16:14:44;5.70;99.90
8662;DHT22;29684;47.722;9.388;2022-11-20T16:17:47;6.00;99.90
8662;DHT22;29684;47.722;9.388;2022-11-20T16:20:31;5.60;99.90
8662;DHT22;29684;47.722;9.388;2022-11-20T16:23:16;5.60;99.90
8662;DHT22;29684;47.722;9.388;2022-11-20T16:26:09;5.60;99.90
8662;DHT22;29684;47.722;9.388;2022-11-20T16:28:54;5.60;99.90
8662;DHT22;29684;47.722;9.388;2022-11-20T16:31:39;5.50;99.90
8662;DHT22;29684;47.722;9.388;2022-11-20T16:34:23;5.50;99.90
8662;DHT22;29684;47.722;9.388;2022-11-20T16:37:07;5.50;99.90
8662;DHT22;29684;47.722;9.388;2022-11-20T16:39:51;5.10;99.90
8662;DHT22;29684;47.722;9.388;2022-11-20T16:42:36;5.40;99.90
8662;DHT22;29684;47.722;9.388;2022-11-20T16:45:20;5.40;99.90
8662;DHT22;29684;47.722;9.388;2022-11-20T16:48:05;5.30;99.90
8662;DHT22;29684;47.722;9.388;2022-11-20T16:50:51;5.90;99.90
8662;DHT22;29684;47.722;9.388;2022-11-20T16:53:36;6.50;99.90
8662;DHT22;29684;47.722;9.388;2022-11-20T16:56:23;5.40;99.90
8662;DHT22;29684;47.722;9.388;2022-11-20T16:59:07;5.50;99.90
8662;DHT22;29684;47.722;9.388;2022-11-20T17:01:51;5.30;99.90
8662;DHT22;29684;47.722;9.388;2022-11-20T17:04:36;5.60;99.90
8662;DHT22;29684;47.722;9.388;2022-11-20T17:07:20;5.40;99.90
8662;DHT22;29684;47.722;9.388;2022-11-20T17:10:04;5.30;99.90
8662;DHT22;29684;47.722;9.388;2022-11-20T17:12:49;5.30;99.90
8662;DHT22;29684;47.722;9.388;2022-11-20T17:15:33;5.20;99.90
8662;DHT22;29684;47.722;9.388;2022-11-20T17:18:17;5.10;99.90
8662;DHT22;29684;47.722;9.388;2022-11-20T17:21:01;5.30;99.90
8662;DHT22;29684;47.722;9.388;2022-11-20T17:23:49;5.20;99.90
8662;DHT22;29684;47.722;9.388;2022-11-20T17:26:35;5.20;99.90
8662;DHT22;29684;47.722;9.388;2022-11-20T17:29:20;5.10;99.90
8662;DHT22;29684;47.722;9.388;2022-11-20T17:32:07;5.00;99.90
8662;DHT22;29684;47.722;9.388;2022-11-20T17:34:51;5.30;99.90
8662;DHT22;29684;47.722;9.388;2022-11-20T17:37:35;5.40;99.90
8662;DHT22;29684;47.722;9.388;2022-11-20T17:40:19;5.40;99.90
8662;DHT22;29684;47.722;9.388;2022-11-20T17:43:03;5.30;99.90
8662;DHT22;29684;47.722;9.388;2022-11-20T17:45:47;5.30;99.90
8662;DHT22;29684;47.722;9.388;2022-11-20T17:48:32;5.20;99.90
8662;DHT22;29684;47.722;9.388;2022-11-20T17:51:22;5.30;99.90
8662;DHT22;29684;47.722;9.388;2022-11-20T17:54:08;5.40;99.90
8662;DHT22;29684;47.722;9.388;2022-11-20T17:56:53;5.30;99.90
8662;DHT22;29684;47.722;9.388;2022-11-20T17:59:57;5.40;99.90
8662;DHT22;29684;47.722;9.388;2022-11-20T18:02:41;5.20;99.90
8662;DHT22;29684;47.722;9.388;2022-11-20T18:05:25;5.20;99.90
8662;DHT22;29684;47.722;9.388;2022-11-20T18:08:10;5.20;99.90
8662;DHT22;29684;47.722;9.388;2022-11-20T18:10:54;5.20;99.90
8662;DHT22;29684;47.722;9.388;2022-11-20T18:13:40;5.20;99.90
8662;DHT22;29684;47.722;9.388;2022-11-20T18:16:52;5.30;99.90
8662;DHT22;29684;47.722;9.388;2022-11-20T18:19:39;5.20;99.90
8662;DHT22;29684;47.722;9.388;2022-11-20T18:22:24;5.20;99.90
8662;DHT22;29684;47.722;9.388;2022-11-20T18:25:09;5.10;99.90
8662;DHT22;29684;47.722;9.388;2022-11-20T18:27:53;5.10;99.90
8662;DHT22;29684;47.722;9.388;2022-11-20T18:30:38;5.20;99.90
8662;DHT22;29684;47.722;9.388;2022-11-20T18:33:22;5.20;99.90
8662;DHT22;29684;47.722;9.388;2022-11-20T18:36:18;5.20;99.90
8662;DHT22;29684;47.722;9.388;2022-11-20T18:39:03;5.20;99.90
8662;DHT22;29684;47.722;9.388;2022-11-20T18:41:48;5.30;99.90
8662;DHT22;29684;47.722;9.388;2022-11-20T18:44:52;5.40;99.90
8662;DHT22;29684;47.722;9.388;2022-11-20T18:47:39;5.20;99.90
8662;DHT22;29684;47.722;9.388;2022-11-20T18:50:23;5.30;99.90
8662;DHT22;29684;47.722;9.388;2022-11-20T18:53:08;5.30;99.90
8662;DHT22;29684;47.722;9.388;2022-11-20T18:55:54;5.40;99.90
8662;DHT22;29684;47.722;9.388;2022-11-20T18:58:39;5.50;99.90
8662;DHT22;29684;47.722;9.388;2022-11-20T19:01:24;5.60;99.90
8662;DHT22;29684;47.722;9.388;2022-11-20T19:04:10;5.70;99.90
8662;DHT22;29684;47.722;9.388;2022-11-20T19:06:55;5.80;99.90
8662;DHT22;29684;47.722;9.388;2022-11-20T19:09:42;5.80;99.90
8662;DHT22;29684;47.722;9.388;2022-11-20T19:12:26;5.80;99.90
8662;DHT22;29684;47.722;9.388;2022-11-20T19:15:11;5.90;99.90
8662;DHT22;29684;47.722;9.388;2022-11-20T19:17:56;5.50;99.90
8662;DHT22;29684;47.722;9.388;2022-11-20T19:20:41;6.00;99.90
8662;DHT22;29684;47.722;9.388;2022-11-20T19:23:26;5.90;99.90
8662;DHT22;29684;47.722;9.388;2022-11-20T19:26:11;6.00;99.90
8662;DHT22;29684;47.722;9.388;2022-11-20T19:28:55;6.00;99.90
8662;DHT22;29684;47.722;9.388;2022-11-20T19:31:41;5.90;99.90
8662;DHT22;29684;47.722;9.388;2022-11-20T19:34:26;5.80;99.90
8662;DHT22;29684;47.722;9.388;2022-11-20T19:37:11;5.70;99.90
8662;DHT22;29684;47.722;9.388;2022-11-20T19:39:56;5.70;99.90
8662;DHT22;29684;47.722;9.388;2022-11-20T19:42:42;5.60;99.90
8662;DHT22;29684;47.722;9.388;2022-11-20T19:45:27;5.50;99.90
8662;DHT22;29684;47.722;9.388;2022-11-20T19:48:12;5.50;99.90